sensor_id;sensor_type;location;lat;lon;timestamp;P1;durP1;ratioP1;P2;durP2;ratioP2
25123;SDS011;13104;51.030;4.686;2022-12-07T00:02:25;14.85;;;9.45;;
25123;SDS011;13104;51.030;4.686;2022-12-07T00:04:52;18.75;;;10.40;;
25123;SDS011;13104;51.030;4.686;2022-12-07T00:07:18;19.55;;;10.05;;
25123;SDS011;13104;51.030;4.686;2022-12-07T00:09:44;16.42;;;10.48;;
25123;SDS011;13104;51.030;4.686;2022-12-07T00:12:10;18.00;;;9.98;;
25123;SDS011;13104;51.030;4.686;2022-12-07T00:14:37;17.50;;;10.30;;
25123;SDS011;13104;51.030;4.686;2022-12-07T00:17:03;17.27;;;9.82;;
25123;SDS011;13104;51.030;4.686;2022-12-07T00:19:29;13.85;;;9.73;;
25123;SDS011;13104;51.030;4.686;2022-12-07T00:21:56;19.95;;;10.52;;
25123;SDS011;13104;51.030;4.686;2022-12-07T00:24:22;18.23;;;10.13;;
25123;SDS011;13104;51.030;4.686;2022-12-07T00:26:49;21.45;;;11.82;;
25123;SDS011;13104;51.030;4.686;2022-12-07T00:29:16;18.17;;;11.18;;
25123;SDS011;13104;51.030;4.686;2022-12-07T00:31:42;21.67;;;10.43;;
25123;SDS011;13104;51.030;4.686;2022-12-07T00:34:13;18.60;;;10.70;;
25123;SDS011;13104;51.030;4.686;2022-12-07T00:36:39;21.48;;;12.00;;
25123;SDS011;13104;51.030;4.686;2022-12-07T00:39:05;23.17;;;12.00;;
25123;SDS011;13104;51.030;4.686;2022-12-07T00:41:31;23.55;;;12.00;;
25123;SDS011;13104;51.030;4.686;2022-12-07T00:43:57;20.55;;;12.23;;
25123;SDS011;13104;51.030;4.686;2022-12-07T00:46:24;17.70;;;10.55;;
25123;SDS011;13104;51.030;4.686;2022-12-07T00:48:50;18.17;;;11.07;;
25123;SDS011;13104;51.030;4.686;2022-12-07T00:51:17;16.58;;;10.43;;
25123;SDS011;13104;51.030;4.686;2022-12-07T00:53:44;17.65;;;10.27;;
25123;SDS011;13104;51.030;4.686;2022-12-07T00:56:20;15.93;;;10.60;;
25123;SDS011;13104;51.030;4.686;2022-12-07T00:58:54;20.42;;;11.45;;
25123;SDS011;13104;51.030;4.686;2022-12-07T01:01:20;21.75;;;12.45;;
25123;SDS011;13104;51.030;4.686;2022-12-07T01:03:47;21.70;;;12.30;;
25123;SDS011;13104;51.030;4.686;2022-12-07T01:06:14;19.05;;;11.82;;
25123;SDS011;13104;51.030;4.686;2022-12-07T01:08:41;19.52;;;11.55;;
25123;SDS011;13104;51.030;4.686;2022-12-07T01:11:08;24.42;;;12.77;;
25123;SDS011;13104;51.030;4.686;2022-12-07T01:13:35;16.70;;;11.73;;
25123;SDS011;13104;51.030;4.686;2022-12-07T01:16:02;23.60;;;12.10;;
25123;SDS011;13104;51.030;4.686;2022-12-07T01:18:29;21.88;;;13.15;;
25123;SDS011;13104;51.030;4.686;2022-12-07T01:23:28;21.40;;;12.65;;
25123;SDS011;13104;51.030;4.686;2022-12-07T01:25:55;20.95;;;12.75;;
25123;SDS011;13104;51.030;4.686;2022-12-07T01:28:21;23.48;;;12.68;;
25123;SDS011;13104;51.030;4.686;2022-12-07T01:31:07;26.17;;;14.10;;
25123;SDS011;13104;51.030;4.686;2022-12-07T01:33:35;19.98;;;13.35;;
25123;SDS011;13104;51.030;4.686;2022-12-07T01:36:05;20.40;;;13.38;;
25123;SDS011;13104;51.030;4.686;2022-12-07T01:38:32;22.77;;;12.73;;
25123;SDS011;13104;51.030;4.686;2022-12-07T01:40:59;21.65;;;13.75;;
25123;SDS011;13104;51.030;4.686;2022-12-07T01:43:27;19.73;;;13.35;;
25123;SDS011;13104;51.030;4.686;2022-12-07T01:45:53;24.35;;;13.82;;
25123;SDS011;13104;51.030;4.686;2022-12-07T01:48:23;21.98;;;13.70;;
25123;SDS011;13104;51.030;4.686;2022-12-07T01:50:50;21.15;;;13.23;;
25123;SDS011;13104;51.030;4.686;2022-12-07T01:53:17;21.98;;;13.50;;
25123;SDS011;13104;51.030;4.686;2022-12-07T01:55:44;22.90;;;14.45;;
25123;SDS011;13104;51.030;4.686;2022-12-07T01:58:11;24.38;;;14.48;;
25123;SDS011;13104;51.030;4.686;2022-12-07T02:00:38;23.65;;;13.80;;
25123;SDS011;13104;51.030;4.686;2022-12-07T02:03:09;20.60;;;13.82;;
25123;SDS011;13104;51.030;4.686;2022-12-07T02:05:37;20.30;;;13.57;;
25123;SDS011;13104;51.030;4.686;2022-12-07T02:08:04;25.10;;;13.43;;
25123;SDS011;13104;51.030;4.686;2022-12-07T02:10:31;22.80;;;13.68;;
25123;SDS011;13104;51.030;4.686;2022-12-07T02:13:04;25.55;;;13.05;;
25123;SDS011;13104;51.030;4.686;2022-12-07T02:15:41;16.65;;;9.85;;
25123;SDS011;13104;51.030;4.686;2022-12-07T02:18:20;22.50;;;13.55;;
25123;SDS011;13104;51.030;4.686;2022-12-07T02:23:25;20.48;;;14.07;;
25123;SDS011;13104;51.030;4.686;2022-12-07T02:26:05;23.08;;;13.45;;
25123;SDS011;13104;51.030;4.686;2022-12-07T02:28:55;24.88;;;14.00;;
25123;SDS011;13104;51.030;4.686;2022-12-07T02:31:25;25.98;;;14.38;;
25123;SDS011;13104;51.030;4.686;2022-12-07T02:33:54;22.55;;;14.15;;
25123;SDS011;13104;51.030;4.686;2022-12-07T02:36:25;20.88;;;13.93;;
25123;SDS011;13104;51.030;4.686;2022-12-07T02:38:58;21.40;;;13.82;;
25123;SDS011;13104;51.030;4.686;2022-12-07T02:41:26;22.00;;;14.25;;
25123;SDS011;13104;51.030;4.686;2022-12-07T02:43:54;23.13;;;13.48;;
25123;SDS011;13104;51.030;4.686;2022-12-07T02:46:22;23.45;;;13.52;;
25123;SDS011;13104;51.030;4.686;2022-12-07T02:48:51;22.63;;;13.20;;
25123;SDS011;13104;51.030;4.686;2022-12-07T02:51:18;23.83;;;13.57;;
25123;SDS011;13104;51.030;4.686;2022-12-07T02:53:44;21.50;;;13.95;;
25123;SDS011;13104;51.030;4.686;2022-12-07T03:03:52;24.42;;;14.40;;
25123;SDS011;13104;51.030;4.686;2022-12-07T03:06:28;21.88;;;13.88;;
25123;SDS011;13104;51.030;4.686;2022-12-07T03:09:13;19.90;;;13.77;;
25123;SDS011;13104;51.030;4.686;2022-12-07T03:14:17;23.90;;;13.90;;
25123;SDS011;13104;51.030;4.686;2022-12-07T03:16:54;25.80;;;13.48;;
25123;SDS011;13104;51.030;4.686;2022-12-07T03:19:23;22.08;;;13.85;;
25123;SDS011;13104;51.030;4.686;2022-12-07T03:21:52;22.20;;;14.07;;
25123;SDS011;13104;51.030;4.686;2022-12-07T03:24:21;26.17;;;14.25;;
25123;SDS011;13104;51.030;4.686;2022-12-07T03:26:49;22.90;;;13.88;;
25123;SDS011;13104;51.030;4.686;2022-12-07T03:29:22;19.70;;;13.57;;
25123;SDS011;13104;51.030;4.686;2022-12-07T03:31:53;21.27;;;13.07;;
25123;SDS011;13104;51.030;4.686;2022-12-07T03:34:24;20.38;;;13.75;;
25123;SDS011;13104;51.030;4.686;2022-12-07T03:41:51;18.33;;;12.90;;
25123;SDS011;13104;51.030;4.686;2022-12-07T03:44:18;20.60;;;12.48;;
25123;SDS011;13104;51.030;4.686;2022-12-07T03:47:05;18.20;;;12.50;;
25123;SDS011;13104;51.030;4.686;2022-12-07T03:49:37;18.08;;;12.38;;
25123;SDS011;13104;51.030;4.686;2022-12-07T03:54:47;20.63;;;13.40;;
25123;SDS011;13104;51.030;4.686;2022-12-07T03:57:14;19.67;;;12.18;;
25123;SDS011;13104;51.030;4.686;2022-12-07T03:59:40;20.83;;;12.88;;
25123;SDS011;13104;51.030;4.686;2022-12-07T04:02:07;23.90;;;13.23;;
25123;SDS011;13104;51.030;4.686;2022-12-07T04:04:33;21.45;;;11.85;;
25123;SDS011;13104;51.030;4.686;2022-12-07T04:07:00;18.33;;;11.13;;
25123;SDS011;13104;51.030;4.686;2022-12-07T04:09:26;18.70;;;11.77;;
25123;SDS011;13104;51.030;4.686;2022-12-07T04:11:52;20.10;;;12.00;;
25123;SDS011;13104;51.030;4.686;2022-12-07T04:14:18;16.55;;;10.95;;
25123;SDS011;13104;51.030;4.686;2022-12-07T04:16:48;15.88;;;10.75;;
25123;SDS011;13104;51.030;4.686;2022-12-07T04:19:15;15.93;;;10.88;;
25123;SDS011;13104;51.030;4.686;2022-12-07T04:21:41;16.65;;;11.07;;
25123;SDS011;13104;51.030;4.686;2022-12-07T04:24:08;16.27;;;10.73;;
25123;SDS011;13104;51.030;4.686;2022-12-07T04:26:35;14.65;;;9.88;;
25123;SDS011;13104;51.030;4.686;2022-12-07T04:29:01;17.33;;;10.77;;
25123;SDS011;13104;51.030;4.686;2022-12-07T04:31:27;14.95;;;10.27;;
25123;SDS011;13104;51.030;4.686;2022-12-07T04:33:53;20.85;;;10.02;;
25123;SDS011;13104;51.030;4.686;2022-12-07T04:36:19;16.27;;;10.85;;
25123;SDS011;13104;51.030;4.686;2022-12-07T04:38:46;13.73;;;9.25;;
25123;SDS011;13104;51.030;4.686;2022-12-07T04:41:12;20.08;;;11.40;;
25123;SDS011;13104;51.030;4.686;2022-12-07T04:43:38;17.30;;;11.15;;
25123;SDS011;13104;51.030;4.686;2022-12-07T04:46:04;18.08;;;10.70;;
25123;SDS011;13104;51.030;4.686;2022-12-07T04:48:30;17.55;;;10.70;;
25123;SDS011;13104;51.030;4.686;2022-12-07T04:50:57;18.73;;;11.40;;
25123;SDS011;13104;51.030;4.686;2022-12-07T04:53:23;16.65;;;10.65;;
25123;SDS011;13104;51.030;4.686;2022-12-07T04:55:49;15.90;;;10.68;;
25123;SDS011;13104;51.030;4.686;2022-12-07T04:58:15;18.63;;;10.57;;
25123;SDS011;13104;51.030;4.686;2022-12-07T05:00:41;15.60;;;10.10;;
25123;SDS011;13104;51.030;4.686;2022-12-07T05:03:07;19.83;;;10.38;;
25123;SDS011;13104;51.030;4.686;2022-12-07T05:05:34;15.40;;;10.00;;
25123;SDS011;13104;51.030;4.686;2022-12-07T05:08:00;19.58;;;9.95;;
25123;SDS011;13104;51.030;4.686;2022-12-07T05:10:26;16.35;;;10.27;;
25123;SDS011;13104;51.030;4.686;2022-12-07T05:12:52;17.90;;;10.40;;
25123;SDS011;13104;51.030;4.686;2022-12-07T05:15:18;14.35;;;9.88;;
25123;SDS011;13104;51.030;4.686;2022-12-07T05:17:44;17.13;;;10.18;;
25123;SDS011;13104;51.030;4.686;2022-12-07T05:20:10;17.35;;;10.98;;
25123;SDS011;13104;51.030;4.686;2022-12-07T05:22:37;16.38;;;10.30;;
25123;SDS011;13104;51.030;4.686;2022-12-07T05:25:03;20.63;;;11.20;;
25123;SDS011;13104;51.030;4.686;2022-12-07T05:27:29;18.65;;;10.52;;
25123;SDS011;13104;51.030;4.686;2022-12-07T05:29:55;16.80;;;9.77;;
25123;SDS011;13104;51.030;4.686;2022-12-07T05:32:21;15.93;;;10.20;;
25123;SDS011;13104;51.030;4.686;2022-12-07T05:34:47;20.33;;;9.98;;
25123;SDS011;13104;51.030;4.686;2022-12-07T05:37:13;14.30;;;9.32;;
25123;SDS011;13104;51.030;4.686;2022-12-07T05:39:40;17.98;;;9.98;;
25123;SDS011;13104;51.030;4.686;2022-12-07T05:42:08;18.35;;;9.70;;
25123;SDS011;13104;51.030;4.686;2022-12-07T05:44:38;14.85;;;9.45;;
25123;SDS011;13104;51.030;4.686;2022-12-07T05:47:04;14.38;;;9.75;;
25123;SDS011;13104;51.030;4.686;2022-12-07T05:49:30;19.25;;;9.27;;
25123;SDS011;13104;51.030;4.686;2022-12-07T05:51:57;11.73;;;8.27;;
25123;SDS011;13104;51.030;4.686;2022-12-07T05:54:23;13.23;;;8.93;;
25123;SDS011;13104;51.030;4.686;2022-12-07T05:56:49;14.88;;;9.77;;
25123;SDS011;13104;51.030;4.686;2022-12-07T05:59:16;17.92;;;9.25;;
25123;SDS011;13104;51.030;4.686;2022-12-07T06:01:51;16.33;;;9.43;;
25123;SDS011;13104;51.030;4.686;2022-12-07T06:04:18;16.13;;;9.27;;
25123;SDS011;13104;51.030;4.686;2022-12-07T06:06:44;15.88;;;9.85;;
25123;SDS011;13104;51.030;4.686;2022-12-07T06:09:10;16.00;;;10.02;;
25123;SDS011;13104;51.030;4.686;2022-12-07T06:11:37;12.35;;;8.77;;
25123;SDS011;13104;51.030;4.686;2022-12-07T06:16:48;14.00;;;8.38;;
25123;SDS011;13104;51.030;4.686;2022-12-07T06:19:14;13.90;;;8.43;;
25123;SDS011;13104;51.030;4.686;2022-12-07T06:21:41;20.00;;;8.48;;
25123;SDS011;13104;51.030;4.686;2022-12-07T06:24:08;14.02;;;8.02;;
25123;SDS011;13104;51.030;4.686;2022-12-07T06:26:34;14.82;;;8.52;;
25123;SDS011;13104;51.030;4.686;2022-12-07T06:29:00;19.33;;;9.05;;
25123;SDS011;13104;51.030;4.686;2022-12-07T06:31:27;17.58;;;9.00;;
25123;SDS011;13104;51.030;4.686;2022-12-07T06:33:59;15.27;;;8.82;;
25123;SDS011;13104;51.030;4.686;2022-12-07T06:36:26;15.32;;;8.23;;
25123;SDS011;13104;51.030;4.686;2022-12-07T06:38:52;14.23;;;7.75;;
25123;SDS011;13104;51.030;4.686;2022-12-07T06:41:18;15.48;;;8.35;;
25123;SDS011;13104;51.030;4.686;2022-12-07T06:43:44;15.32;;;8.43;;
25123;SDS011;13104;51.030;4.686;2022-12-07T06:46:10;14.07;;;9.07;;
25123;SDS011;13104;51.030;4.686;2022-12-07T06:48:36;14.80;;;8.35;;
25123;SDS011;13104;51.030;4.686;2022-12-07T06:51:02;19.52;;;10.52;;
25123;SDS011;13104;51.030;4.686;2022-12-07T06:53:28;15.15;;;10.57;;
25123;SDS011;13104;51.030;4.686;2022-12-07T06:55:55;22.27;;;9.60;;
25123;SDS011;13104;51.030;4.686;2022-12-07T06:58:21;14.75;;;9.30;;
25123;SDS011;13104;51.030;4.686;2022-12-07T07:00:48;16.05;;;8.57;;
25123;SDS011;13104;51.030;4.686;2022-12-07T07:03:16;15.95;;;8.40;;
25123;SDS011;13104;51.030;4.686;2022-12-07T07:05:43;17.08;;;8.50;;
25123;SDS011;13104;51.030;4.686;2022-12-07T07:08:10;16.63;;;8.73;;
25123;SDS011;13104;51.030;4.686;2022-12-07T07:10:36;12.05;;;7.45;;
25123;SDS011;13104;51.030;4.686;2022-12-07T07:13:02;17.20;;;8.82;;
25123;SDS011;13104;51.030;4.686;2022-12-07T07:15:30;18.02;;;8.73;;
25123;SDS011;13104;51.030;4.686;2022-12-07T07:17:59;18.55;;;8.80;;
25123;SDS011;13104;51.030;4.686;2022-12-07T07:20:25;15.48;;;8.30;;
25123;SDS011;13104;51.030;4.686;2022-12-07T07:22:53;19.40;;;9.27;;
25123;SDS011;13104;51.030;4.686;2022-12-07T07:25:20;19.08;;;8.73;;
25123;SDS011;13104;51.030;4.686;2022-12-07T07:27:46;13.25;;;8.05;;
25123;SDS011;13104;51.030;4.686;2022-12-07T07:30:12;16.85;;;8.18;;
25123;SDS011;13104;51.030;4.686;2022-12-07T07:32:38;14.15;;;8.57;;
25123;SDS011;13104;51.030;4.686;2022-12-07T07:35:05;19.08;;;8.70;;
25123;SDS011;13104;51.030;4.686;2022-12-07T07:37:31;13.23;;;8.30;;
25123;SDS011;13104;51.030;4.686;2022-12-07T07:39:57;15.35;;;7.55;;
25123;SDS011;13104;51.030;4.686;2022-12-07T07:42:23;16.85;;;8.50;;
25123;SDS011;13104;51.030;4.686;2022-12-07T07:44:50;13.80;;;8.13;;
25123;SDS011;13104;51.030;4.686;2022-12-07T07:47:16;17.45;;;8.45;;
25123;SDS011;13104;51.030;4.686;2022-12-07T07:49:42;13.32;;;7.50;;
25123;SDS011;13104;51.030;4.686;2022-12-07T07:52:09;12.98;;;7.78;;
25123;SDS011;13104;51.030;4.686;2022-12-07T07:54:35;14.43;;;8.20;;
25123;SDS011;13104;51.030;4.686;2022-12-07T07:57:01;15.23;;;8.45;;
25123;SDS011;13104;51.030;4.686;2022-12-07T07:59:27;14.40;;;8.30;;
25123;SDS011;13104;51.030;4.686;2022-12-07T08:01:54;17.35;;;8.50;;
25123;SDS011;13104;51.030;4.686;2022-12-07T08:04:20;21.13;;;9.25;;
25123;SDS011;13104;51.030;4.686;2022-12-07T08:06:46;22.08;;;9.85;;
25123;SDS011;13104;51.030;4.686;2022-12-07T08:09:12;16.27;;;8.82;;
25123;SDS011;13104;51.030;4.686;2022-12-07T08:11:38;18.55;;;10.55;;
25123;SDS011;13104;51.030;4.686;2022-12-07T08:14:04;19.38;;;10.00;;
25123;SDS011;13104;51.030;4.686;2022-12-07T08:16:30;16.27;;;9.60;;
25123;SDS011;13104;51.030;4.686;2022-12-07T08:18:56;19.90;;;8.93;;
25123;SDS011;13104;51.030;4.686;2022-12-07T08:21:23;15.77;;;9.25;;
25123;SDS011;13104;51.030;4.686;2022-12-07T08:23:50;20.30;;;9.13;;
25123;SDS011;13104;51.030;4.686;2022-12-07T08:26:16;13.73;;;9.23;;
25123;SDS011;13104;51.030;4.686;2022-12-07T08:28:42;14.40;;;9.23;;
25123;SDS011;13104;51.030;4.686;2022-12-07T08:31:11;17.00;;;9.82;;
25123;SDS011;13104;51.030;4.686;2022-12-07T08:33:38;18.50;;;10.48;;
25123;SDS011;13104;51.030;4.686;2022-12-07T08:36:05;15.57;;;9.73;;
25123;SDS011;13104;51.030;4.686;2022-12-07T08:38:31;19.08;;;10.35;;
25123;SDS011;13104;51.030;4.686;2022-12-07T08:40:58;21.02;;;10.00;;
25123;SDS011;13104;51.030;4.686;2022-12-07T08:43:24;19.58;;;11.35;;
25123;SDS011;13104;51.030;4.686;2022-12-07T08:45:59;18.02;;;10.77;;
25123;SDS011;13104;51.030;4.686;2022-12-07T08:48:28;18.88;;;11.52;;
25123;SDS011;13104;51.030;4.686;2022-12-07T08:50:55;18.52;;;11.00;;
25123;SDS011;13104;51.030;4.686;2022-12-07T08:53:21;23.60;;;11.63;;
25123;SDS011;13104;51.030;4.686;2022-12-07T08:55:48;19.02;;;10.40;;
25123;SDS011;13104;51.030;4.686;2022-12-07T08:58:14;21.73;;;10.40;;
25123;SDS011;13104;51.030;4.686;2022-12-07T09:00:40;28.88;;;10.95;;
25123;SDS011;13104;51.030;4.686;2022-12-07T09:03:06;22.52;;;11.38;;
25123;SDS011;13104;51.030;4.686;2022-12-07T09:05:33;18.40;;;10.55;;
25123;SDS011;13104;51.030;4.686;2022-12-07T09:08:00;22.45;;;10.77;;
25123;SDS011;13104;51.030;4.686;2022-12-07T09:10:27;16.85;;;10.02;;
25123;SDS011;13104;51.030;4.686;2022-12-07T09:12:53;19.13;;;9.75;;
25123;SDS011;13104;51.030;4.686;2022-12-07T09:15:19;20.55;;;10.50;;
25123;SDS011;13104;51.030;4.686;2022-12-07T09:17:45;20.15;;;10.82;;
25123;SDS011;13104;51.030;4.686;2022-12-07T09:20:12;22.35;;;10.32;;
25123;SDS011;13104;51.030;4.686;2022-12-07T09:22:38;18.90;;;10.48;;
25123;SDS011;13104;51.030;4.686;2022-12-07T09:25:04;21.65;;;11.45;;
25123;SDS011;13104;51.030;4.686;2022-12-07T09:27:30;18.35;;;9.73;;
25123;SDS011;13104;51.030;4.686;2022-12-07T09:29:57;19.77;;;10.68;;
25123;SDS011;13104;51.030;4.686;2022-12-07T09:32:23;18.80;;;9.88;;
25123;SDS011;13104;51.030;4.686;2022-12-07T09:34:49;19.15;;;10.32;;
25123;SDS011;13104;51.030;4.686;2022-12-07T09:37:15;18.38;;;10.00;;
25123;SDS011;13104;51.030;4.686;2022-12-07T09:39:41;17.05;;;10.23;;
25123;SDS011;13104;51.030;4.686;2022-12-07T09:42:07;18.40;;;9.80;;
25123;SDS011;13104;51.030;4.686;2022-12-07T09:44:36;15.18;;;9.70;;
25123;SDS011;13104;51.030;4.686;2022-12-07T09:47:05;22.48;;;9.57;;
25123;SDS011;13104;51.030;4.686;2022-12-07T09:49:31;19.15;;;9.38;;
25123;SDS011;13104;51.030;4.686;2022-12-07T09:54:34;17.00;;;10.15;;
25123;SDS011;13104;51.030;4.686;2022-12-07T09:57:01;32.95;;;10.70;;
25123;SDS011;13104;51.030;4.686;2022-12-07T09:59:28;21.15;;;10.50;;
25123;SDS011;13104;51.030;4.686;2022-12-07T10:01:54;16.42;;;9.30;;
25123;SDS011;13104;51.030;4.686;2022-12-07T10:04:22;17.05;;;9.68;;
25123;SDS011;13104;51.030;4.686;2022-12-07T10:06:49;18.55;;;8.32;;
25123;SDS011;13104;51.030;4.686;2022-12-07T10:09:16;22.20;;;9.13;;
25123;SDS011;13104;51.030;4.686;2022-12-07T10:14:24;20.58;;;7.65;;
25123;SDS011;13104;51.030;4.686;2022-12-07T10:16:52;17.73;;;8.13;;
25123;SDS011;13104;51.030;4.686;2022-12-07T10:24:33;14.57;;;7.05;;
25123;SDS011;13104;51.030;4.686;2022-12-07T10:26:59;21.52;;;7.25;;
25123;SDS011;13104;51.030;4.686;2022-12-07T10:29:30;17.55;;;7.75;;
25123;SDS011;13104;51.030;4.686;2022-12-07T10:32:01;13.75;;;7.95;;
25123;SDS011;13104;51.030;4.686;2022-12-07T10:34:28;14.02;;;7.00;;
25123;SDS011;13104;51.030;4.686;2022-12-07T10:39:44;15.32;;;7.35;;
25123;SDS011;13104;51.030;4.686;2022-12-07T10:42:23;16.52;;;6.85;;
25123;SDS011;13104;51.030;4.686;2022-12-07T10:44:50;20.77;;;6.80;;
25123;SDS011;13104;51.030;4.686;2022-12-07T10:47:48;14.85;;;6.85;;
25123;SDS011;13104;51.030;4.686;2022-12-07T10:55:33;9.48;;;6.00;;
25123;SDS011;13104;51.030;4.686;2022-12-07T10:58:06;12.43;;;5.75;;
25123;SDS011;13104;51.030;4.686;2022-12-07T11:00:49;17.30;;;6.70;;
25123;SDS011;13104;51.030;4.686;2022-12-07T11:11:14;11.80;;;5.68;;
25123;SDS011;13104;51.030;4.686;2022-12-07T11:16:24;13.50;;;4.47;;
25123;SDS011;13104;51.030;4.686;2022-12-07T11:21:33;10.35;;;4.90;;
25123;SDS011;13104;51.030;4.686;2022-12-07T11:24:15;8.77;;;4.45;;
25123;SDS011;13104;51.030;4.686;2022-12-07T11:26:49;11.60;;;4.57;;
25123;SDS011;13104;51.030;4.686;2022-12-07T11:34:16;14.43;;;4.38;;
25123;SDS011;13104;51.030;4.686;2022-12-07T11:36:45;8.85;;;4.30;;
25123;SDS011;13104;51.030;4.686;2022-12-07T11:39:28;12.93;;;4.60;;
25123;SDS011;13104;51.030;4.686;2022-12-07T11:44:55;16.33;;;4.28;;
25123;SDS011;13104;51.030;4.686;2022-12-07T11:50:10;14.02;;;4.22;;
25123;SDS011;13104;51.030;4.686;2022-12-07T11:52:43;14.10;;;4.07;;
25123;SDS011;13104;51.030;4.686;2022-12-07T11:55:25;14.15;;;4.60;;
25123;SDS011;13104;51.030;4.686;2022-12-07T11:58:03;7.68;;;4.53;;
25123;SDS011;13104;51.030;4.686;2022-12-07T12:00:30;18.50;;;5.55;;
25123;SDS011;13104;51.030;4.686;2022-12-07T12:03:13;15.85;;;5.20;;
25123;SDS011;13104;51.030;4.686;2022-12-07T12:05:41;21.95;;;5.63;;
25123;SDS011;13104;51.030;4.686;2022-12-07T12:08:15;16.83;;;6.47;;
25123;SDS011;13104;51.030;4.686;2022-12-07T12:10:54;12.57;;;5.70;;
25123;SDS011;13104;51.030;4.686;2022-12-07T12:21:02;13.85;;;5.72;;
25123;SDS011;13104;51.030;4.686;2022-12-07T12:23:50;12.80;;;5.63;;
25123;SDS011;13104;51.030;4.686;2022-12-07T12:26:24;16.98;;;6.15;;
25123;SDS011;13104;51.030;4.686;2022-12-07T12:28:56;13.90;;;5.80;;
25123;SDS011;13104;51.030;4.686;2022-12-07T12:33:54;14.25;;;5.95;;
25123;SDS011;13104;51.030;4.686;2022-12-07T12:36:22;14.35;;;5.63;;
25123;SDS011;13104;51.030;4.686;2022-12-07T12:41:50;12.35;;;5.65;;
25123;SDS011;13104;51.030;4.686;2022-12-07T12:46:53;12.73;;;5.90;;
25123;SDS011;13104;51.030;4.686;2022-12-07T12:51:47;9.43;;;5.78;;
25123;SDS011;13104;51.030;4.686;2022-12-07T12:54:20;16.38;;;6.00;;
25123;SDS011;13104;51.030;4.686;2022-12-07T12:57:00;12.35;;;4.82;;
25123;SDS011;13104;51.030;4.686;2022-12-07T12:59:31;21.87;;;5.73;;
25123;SDS011;13104;51.030;4.686;2022-12-07T13:04:48;12.32;;;5.70;;
25123;SDS011;13104;51.030;4.686;2022-12-07T13:07:47;12.27;;;5.45;;
25123;SDS011;13104;51.030;4.686;2022-12-07T13:10:01;11.55;;;5.55;;
25123;SDS011;13104;51.030;4.686;2022-12-07T13:12:28;10.85;;;5.75;;
25123;SDS011;13104;51.030;4.686;2022-12-07T13:14:55;11.98;;;5.70;;
25123;SDS011;13104;51.030;4.686;2022-12-07T13:20:06;14.60;;;5.75;;
25123;SDS011;13104;51.030;4.686;2022-12-07T13:25:05;10.77;;;4.10;;
25123;SDS011;13104;51.030;4.686;2022-12-07T13:27:33;5.70;;;3.78;;
25123;SDS011;13104;51.030;4.686;2022-12-07T13:30:00;7.82;;;3.97;;
25123;SDS011;13104;51.030;4.686;2022-12-07T13:32:27;8.25;;;4.00;;
25123;SDS011;13104;51.030;4.686;2022-12-07T13:34:54;5.93;;;3.88;;
25123;SDS011;13104;51.030;4.686;2022-12-07T13:37:27;7.65;;;3.97;;
25123;SDS011;13104;51.030;4.686;2022-12-07T13:39:55;7.85;;;4.07;;
25123;SDS011;13104;51.030;4.686;2022-12-07T13:42:26;67.90;;;23.23;;
25123;SDS011;13104;51.030;4.686;2022-12-07T13:44:53;34.63;;;12.93;;
25123;SDS011;13104;51.030;4.686;2022-12-07T13:47:25;31.42;;;10.82;;
25123;SDS011;13104;51.030;4.686;2022-12-07T13:49:55;19.17;;;8.95;;
25123;SDS011;13104;51.030;4.686;2022-12-07T13:52:22;23.05;;;10.63;;
25123;SDS011;13104;51.030;4.686;2022-12-07T13:54:54;25.35;;;11.75;;
25123;SDS011;13104;51.030;4.686;2022-12-07T13:57:22;57.80;;;24.35;;
25123;SDS011;13104;51.030;4.686;2022-12-07T13:59:48;90.43;;;35.33;;
25123;SDS011;13104;51.030;4.686;2022-12-07T14:02:22;91.82;;;38.75;;
25123;SDS011;13104;51.030;4.686;2022-12-07T14:04:50;53.45;;;21.38;;
25123;SDS011;13104;51.030;4.686;2022-12-07T14:07:24;11.02;;;5.97;;
25123;SDS011;13104;51.030;4.686;2022-12-07T14:09:54;13.55;;;6.25;;
25123;SDS011;13104;51.030;4.686;2022-12-07T14:12:20;11.63;;;5.70;;
25123;SDS011;13104;51.030;4.686;2022-12-07T14:14:47;8.85;;;4.95;;
25123;SDS011;13104;51.030;4.686;2022-12-07T14:19:41;12.52;;;5.25;;
25123;SDS011;13104;51.030;4.686;2022-12-07T14:22:08;9.90;;;5.47;;
25123;SDS011;13104;51.030;4.686;2022-12-07T14:24:43;9.43;;;5.82;;
25123;SDS011;13104;51.030;4.686;2022-12-07T14:27:16;11.30;;;5.68;;
25123;SDS011;13104;51.030;4.686;2022-12-07T14:29:43;13.10;;;6.40;;
25123;SDS011;13104;51.030;4.686;2022-12-07T14:32:28;9.30;;;6.20;;
25123;SDS011;13104;51.030;4.686;2022-12-07T14:34:55;12.82;;;6.28;;
25123;SDS011;13104;51.030;4.686;2022-12-07T14:37:21;10.13;;;5.82;;
25123;SDS011;13104;51.030;4.686;2022-12-07T14:39:47;9.70;;;5.60;;
25123;SDS011;13104;51.030;4.686;2022-12-07T14:42:13;9.30;;;5.35;;
25123;SDS011;13104;51.030;4.686;2022-12-07T14:44:40;10.55;;;6.20;;
25123;SDS011;13104;51.030;4.686;2022-12-07T14:47:08;11.43;;;6.00;;
25123;SDS011;13104;51.030;4.686;2022-12-07T14:49:34;18.85;;;8.27;;
25123;SDS011;13104;51.030;4.686;2022-12-07T14:52:00;30.58;;;13.25;;
25123;SDS011;13104;51.030;4.686;2022-12-07T14:54:27;15.15;;;7.03;;
25123;SDS011;13104;51.030;4.686;2022-12-07T14:56:55;7.50;;;4.78;;
25123;SDS011;13104;51.030;4.686;2022-12-07T14:59:21;12.40;;;6.15;;
25123;SDS011;13104;51.030;4.686;2022-12-07T15:01:47;10.32;;;5.22;;
25123;SDS011;13104;51.030;4.686;2022-12-07T15:04:14;12.70;;;5.78;;
25123;SDS011;13104;51.030;4.686;2022-12-07T15:06:40;11.65;;;5.90;;
25123;SDS011;13104;51.030;4.686;2022-12-07T15:09:09;15.05;;;7.63;;
25123;SDS011;13104;51.030;4.686;2022-12-07T15:11:36;16.40;;;6.55;;
25123;SDS011;13104;51.030;4.686;2022-12-07T15:14:02;12.55;;;6.47;;
25123;SDS011;13104;51.030;4.686;2022-12-07T15:16:36;23.27;;;8.48;;
25123;SDS011;13104;51.030;4.686;2022-12-07T15:19:02;26.23;;;10.23;;
25123;SDS011;13104;51.030;4.686;2022-12-07T15:21:29;29.13;;;10.88;;
25123;SDS011;13104;51.030;4.686;2022-12-07T15:23:55;24.88;;;11.50;;
25123;SDS011;13104;51.030;4.686;2022-12-07T15:26:21;23.70;;;9.45;;
25123;SDS011;13104;51.030;4.686;2022-12-07T15:28:47;17.98;;;8.73;;
25123;SDS011;13104;51.030;4.686;2022-12-07T15:31:14;21.92;;;8.55;;
25123;SDS011;13104;51.030;4.686;2022-12-07T15:33:40;22.63;;;9.10;;
25123;SDS011;13104;51.030;4.686;2022-12-07T15:36:07;12.73;;;6.68;;
25123;SDS011;13104;51.030;4.686;2022-12-07T15:38:33;16.50;;;6.88;;
25123;SDS011;13104;51.030;4.686;2022-12-07T15:41:00;13.57;;;6.63;;
25123;SDS011;13104;51.030;4.686;2022-12-07T15:43:27;19.02;;;7.93;;
25123;SDS011;13104;51.030;4.686;2022-12-07T15:46:12;24.30;;;11.75;;
25123;SDS011;13104;51.030;4.686;2022-12-07T15:48:39;19.95;;;10.48;;
25123;SDS011;13104;51.030;4.686;2022-12-07T15:51:06;17.67;;;9.32;;
25123;SDS011;13104;51.030;4.686;2022-12-07T15:53:32;16.65;;;8.95;;
25123;SDS011;13104;51.030;4.686;2022-12-07T15:55:59;22.92;;;10.73;;
25123;SDS011;13104;51.030;4.686;2022-12-07T15:58:25;16.80;;;8.63;;
25123;SDS011;13104;51.030;4.686;2022-12-07T16:00:51;17.88;;;8.43;;
25123;SDS011;13104;51.030;4.686;2022-12-07T16:03:17;15.35;;;6.88;;
25123;SDS011;13104;51.030;4.686;2022-12-07T16:05:50;11.18;;;6.65;;
25123;SDS011;13104;51.030;4.686;2022-12-07T16:08:17;10.00;;;5.95;;
25123;SDS011;13104;51.030;4.686;2022-12-07T16:10:43;11.30;;;6.85;;
25123;SDS011;13104;51.030;4.686;2022-12-07T16:13:09;23.70;;;11.43;;